sensor_id;sensor_type;location;lat;lon;timestamp;pressure;altitude;pressure_sealevel;temperature;humidity
69153;BME280;56261;51.580;4.578;2024-03-06T00:01:10;101876.59;;;4.38;100.00
69153;BME280;56261;51.580;4.578;2024-03-06T00:03:35;101873.59;;;4.30;100.00
69153;BME280;56261;51.580;4.578;2024-03-06T00:06:00;101871.50;;;4.22;100.00
69153;BME280;56261;51.580;4.578;2024-03-06T00:08:26;101872.72;;;4.16;100.00
69153;BME280;56261;51.580;4.578;2024-03-06T00:10:51;101888.78;;;4.13;100.00
69153;BME280;56261;51.580;4.578;2024-03-06T00:13:17;101876.66;;;4.11;100.00
69153;BME280;56261;51.580;4.578;2024-03-06T00:15:42;101878.72;;;4.06;100.00
69153;BME280;56261;51.580;4.578;2024-03-06T00:18:08;101889.50;;;4.03;100.00
69153;BME280;56261;51.580;4.578;2024-03-06T00:20:33;101891.38;;;4.01;100.00
69153;BME280;56261;51.580;4.578;2024-03-06T00:22:59;101898.66;;;3.97;100.00
69153;BME280;56261;51.580;4.578;2024-03-06T00:25:24;101895.47;;;3.92;100.00
69153;BME280;56261;51.580;4.578;2024-03-06T00:27:50;101900.53;;;3.95;100.00
69153;BME280;56261;51.580;4.578;2024-03-06T00:30:15;101898.94;;;3.92;100.00
69153;BME280;56261;51.580;4.578;2024-03-06T00:32:41;101905.09;;;3.93;100.00
69153;BME280;56261;51.580;4.578;2024-03-06T00:35:06;101905.19;;;3.91;100.00
69153;BME280;56261;51.580;4.578;2024-03-06T00:37:32;101904.34;;;3.91;100.00
69153;BME280;56261;51.580;4.578;2024-03-06T00:39:57;101914.25;;;3.87;100.00
69153;BME280;56261;51.580;4.578;2024-03-06T00:42:22;101905.66;;;3.84;100.00
69153;BME280;56261;51.580;4.578;2024-03-06T00:44:48;101905.88;;;3.81;100.00
69153;BME280;56261;51.580;4.578;2024-03-06T00:47:13;101904.28;;;3.78;100.00
69153;BME280;56261;51.580;4.578;2024-03-06T00:49:38;101915.22;;;3.72;100.00
69153;BME280;56261;51.580;4.578;2024-03-06T00:52:04;101907.63;;;3.67;100.00
69153;BME280;56261;51.580;4.578;2024-03-06T00:54:30;101907.63;;;3.67;100.00
69153;BME280;56261;51.580;4.578;2024-03-06T00:56:56;101904.06;;;3.68;100.00
69153;BME280;56261;51.580;4.578;2024-03-06T00:59:22;101903.09;;;3.69;100.00
69153;BME280;56261;51.580;4.578;2024-03-06T01:01:48;101911.84;;;3.70;100.00
69153;BME280;56261;51.580;4.578;2024-03-06T01:04:13;101916.38;;;3.68;100.00
69153;BME280;56261;51.580;4.578;2024-03-06T01:06:39;101914.69;;;3.67;100.00
69153;BME280;56261;51.580;4.578;2024-03-06T01:09:05;101919.88;;;3.68;100.00
69153;BME280;56261;51.580;4.578;2024-03-06T01:11:30;101916.78;;;3.62;100.00
69153;BME280;56261;51.580;4.578;2024-03-06T01:13:55;101934.19;;;3.64;100.00
69153;BME280;56261;51.580;4.578;2024-03-06T01:16:21;101934.28;;;3.63;100.00
69153;BME280;56261;51.580;4.578;2024-03-06T01:18:47;101930.81;;;3.62;100.00
69153;BME280;56261;51.580;4.578;2024-03-06T01:21:12;101934.28;;;3.63;100.00
69153;BME280;56261;51.580;4.578;2024-03-06T01:23:37;101936.09;;;3.62;100.00
69153;BME280;56261;51.580;4.578;2024-03-06T01:26:03;101929.97;;;3.62;100.00
69153;BME280;56261;51.580;4.578;2024-03-06T01:28:28;101929.22;;;3.60;100.00
69153;BME280;56261;51.580;4.578;2024-03-06T01:30:53;101926.97;;;3.53;100.00
69153;BME280;56261;51.580;4.578;2024-03-06T01:33:19;101935.81;;;3.52;100.00
69153;BME280;56261;51.580;4.578;2024-03-06T01:35:45;101929.69;;;3.52;100.00
69153;BME280;56261;51.580;4.578;2024-03-06T01:38:10;101940.25;;;3.52;100.00
69153;BME280;56261;51.580;4.578;2024-03-06T01:40:36;101919.19;;;3.38;100.00
69153;BME280;56261;51.580;4.578;2024-03-06T01:43:02;101946.66;;;3.48;100.00
69153;BME280;56261;51.580;4.578;2024-03-06T01:45:27;101943.53;;;3.41;100.00
69153;BME280;56261;51.580;4.578;2024-03-06T01:47:53;101937.44;;;3.41;100.00
69153;BME280;56261;51.580;4.578;2024-03-06T01:50:18;101945.44;;;3.39;100.00
69153;BME280;56261;51.580;4.578;2024-03-06T01:52:44;101944.78;;;3.36;100.00
69153;BME280;56261;51.580;4.578;2024-03-06T01:55:10;101949.22;;;3.35;100.00
69153;BME280;56261;51.580;4.578;2024-03-06T01:57:38;101955.34;;;3.36;100.00
69153;BME280;56261;51.580;4.578;2024-03-06T02:00:04;101952.69;;;3.36;100.00
69153;BME280;56261;51.580;4.578;2024-03-06T02:02:33;101955.25;;;3.37;100.00
69153;BME280;56261;51.580;4.578;2024-03-06T02:04:59;101955.50;;;3.32;100.00
69153;BME280;56261;51.580;4.578;2024-03-06T02:07:25;101954.19;;;3.25;100.00
69153;BME280;56261;51.580;4.578;2024-03-06T02:09:50;101963.16;;;3.23;100.00
69153;BME280;56261;51.580;4.578;2024-03-06T02:12:17;101954.47;;;3.21;100.00
69153;BME280;56261;51.580;4.578;2024-03-06T02:14:43;101957.59;;;3.27;100.00
69153;BME280;56261;51.580;4.578;2024-03-06T02:17:09;101960.22;;;3.27;100.00
69153;BME280;56261;51.580;4.578;2024-03-06T02:19:41;101967.97;;;3.30;100.00
69153;BME280;56261;51.580;4.578;2024-03-06T02:22:07;101966.53;;;3.25;100.00
69153;BME280;56261;51.580;4.578;2024-03-06T02:24:33;101975.56;;;3.21;100.00
69153;BME280;56261;51.580;4.578;2024-03-06T02:26:59;101975.09;;;3.14;100.00
69153;BME280;56261;51.580;4.578;2024-03-06T02:29:24;101976.91;;;3.14;100.00
69153;BME280;56261;51.580;4.578;2024-03-06T02:31:50;101975.38;;;3.09;100.00
69153;BME280;56261;51.580;4.578;2024-03-06T02:34:15;101973.50;;;3.11;100.00
69153;BME280;56261;51.580;4.578;2024-03-06T02:36:41;101984.88;;;3.12;100.00
69153;BME280;56261;51.580;4.578;2024-03-06T02:39:06;101987.16;;;3.18;100.00
69153;BME280;56261;51.580;4.578;2024-03-06T02:41:35;101986.13;;;3.21;100.00
69153;BME280;56261;51.580;4.578;2024-03-06T02:44:01;101970.13;;;3.24;100.00
69153;BME280;56261;51.580;4.578;2024-03-06T02:46:26;101981.88;;;3.32;100.00
69153;BME280;56261;51.580;4.578;2024-03-06T02:48:51;101975.47;;;3.37;100.00
69153;BME280;56261;51.580;4.578;2024-03-06T02:51:20;101975.38;;;3.38;100.00
69153;BME280;56261;51.580;4.578;2024-03-06T02:53:46;101979.34;;;3.45;100.00
69153;BME280;56261;51.580;4.578;2024-03-06T02:56:17;101988.56;;;3.52;100.00
69153;BME280;56261;51.580;4.578;2024-03-06T02:58:43;101983.88;;;3.58;100.00
69153;BME280;56261;51.580;4.578;2024-03-06T03:01:09;101980.81;;;3.64;100.00
69153;BME280;56261;51.580;4.578;2024-03-06T03:03:35;101978.84;;;3.67;100.00
69153;BME280;56261;51.580;4.578;2024-03-06T03:06:01;101972.22;;;3.74;100.00
69153;BME280;56261;51.580;4.578;2024-03-06T03:08:27;101987.75;;;3.79;100.00
69153;BME280;56261;51.580;4.578;2024-03-06T03:10:52;101979.75;;;3.81;100.00
69153;BME280;56261;51.580;4.578;2024-03-06T03:13:17;101981.34;;;3.83;100.00
69153;BME280;56261;51.580;4.578;2024-03-06T03:15:43;101980.59;;;3.81;100.00
69153;BME280;56261;51.580;4.578;2024-03-06T03:18:08;101972.59;;;3.83;100.00
69153;BME280;56261;51.580;4.578;2024-03-06T03:20:34;101972.59;;;3.83;100.00
69153;BME280;56261;51.580;4.578;2024-03-06T03:23:00;101981.06;;;3.88;100.00
69153;BME280;56261;51.580;4.578;2024-03-06T03:25:26;101985.41;;;3.89;100.00
69153;BME280;56261;51.580;4.578;2024-03-06T03:27:52;101971.63;;;3.84;100.00
69153;BME280;56261;51.580;4.578;2024-03-06T03:30:17;101983.25;;;3.81;100.00
69153;BME280;56261;51.580;4.578;2024-03-06T03:32:49;101976.38;;;3.79;100.00
69153;BME280;56261;51.580;4.578;2024-03-06T03:35:15;101981.56;;;3.80;100.00
69153;BME280;56261;51.580;4.578;2024-03-06T03:37:40;101980.59;;;3.81;100.00
69153;BME280;56261;51.580;4.578;2024-03-06T03:40:08;101982.50;;;3.79;100.00
69153;BME280;56261;51.580;4.578;2024-03-06T03:42:37;101980.22;;;3.87;100.00
69153;BME280;56261;51.580;4.578;2024-03-06T03:45:02;101991.53;;;3.89;100.00
69153;BME280;56261;51.580;4.578;2024-03-06T03:47:28;101993.31;;;3.89;100.00
69153;BME280;56261;51.580;4.578;2024-03-06T03:49:53;101986.34;;;3.88;100.00
69153;BME280;56261;51.580;4.578;2024-03-06T03:52:19;101980.44;;;3.84;100.00
69153;BME280;56261;51.580;4.578;2024-03-06T03:54:44;101987.38;;;3.85;100.00
69153;BME280;56261;51.580;4.578;2024-03-06T03:57:09;101983.91;;;3.85;100.00
69153;BME280;56261;51.580;4.578;2024-03-06T03:59:35;101986.00;;;3.80;100.00
69153;BME280;56261;51.580;4.578;2024-03-06T04:02:02;101990.81;;;3.73;100.00
69153;BME280;56261;51.580;4.578;2024-03-06T04:04:27;101990.25;;;3.68;100.00
69153;BME280;56261;51.580;4.578;2024-03-06T04:06:54;101990.53;;;3.63;100.00
69153;BME280;56261;51.580;4.578;2024-03-06T04:09:19;101999.09;;;3.67;100.00
69153;BME280;56261;51.580;4.578;2024-03-06T04:11:44;101998.28;;;3.66;100.00
69153;BME280;56261;51.580;4.578;2024-03-06T04:14:10;101993.38;;;3.60;100.00
69153;BME280;56261;51.580;4.578;2024-03-06T04:16:35;101996.19;;;3.57;100.00
69153;BME280;56261;51.580;4.578;2024-03-06T04:19:01;102001.66;;;3.54;100.00
69153;BME280;56261;51.580;4.578;2024-03-06T04:21:27;101999.03;;;3.54;100.00
69153;BME280;56261;51.580;4.578;2024-03-06T04:23:52;102006.38;;;3.49;100.00
69153;BME280;56261;51.580;4.578;2024-03-06T04:26:18;101993.47;;;3.44;100.00
69153;BME280;56261;51.580;4.578;2024-03-06T04:28:44;102001.09;;;3.49;100.00
69153;BME280;56261;51.580;4.578;2024-03-06T04:31:09;102005.72;;;3.45;100.00
69153;BME280;56261;51.580;4.578;2024-03-06T04:33:35;102004.19;;;3.41;100.00
69153;BME280;56261;51.580;4.578;2024-03-06T04:36:02;102013.63;;;3.45;100.00
69153;BME280;56261;51.580;4.578;2024-03-06T04:38:28;102014.56;;;3.44;100.00
69153;BME280;56261;51.580;4.578;2024-03-06T04:40:54;102017.59;;;3.38;100.00
69153;BME280;56261;51.580;4.578;2024-03-06T04:43:20;102026.25;;;3.40;100.00
69153;BME280;56261;51.580;4.578;2024-03-06T04:45:45;102029.16;;;3.36;100.00
69153;BME280;56261;51.580;4.578;2024-03-06T04:48:10;102016.34;;;3.29;100.00
69153;BME280;56261;51.580;4.578;2024-03-06T04:50:36;102033.69;;;3.33;100.00
69153;BME280;56261;51.580;4.578;2024-03-06T04:53:01;102026.97;;;3.28;100.00
69153;BME280;56261;51.580;4.578;2024-03-06T04:55:26;102034.53;;;3.20;100.00
69153;BME280;56261;51.580;4.578;2024-03-06T04:57:52;102030.66;;;3.11;100.00
69153;BME280;56261;51.580;4.578;2024-03-06T05:00:18;102034.41;;;3.07;100.00
69153;BME280;56261;51.580;4.578;2024-03-06T05:02:47;102035.16;;;3.09;100.00
69153;BME280;56261;51.580;4.578;2024-03-06T05:05:14;102046.75;;;3.06;100.00
69153;BME280;56261;51.580;4.578;2024-03-06T05:07:40;102050.22;;;3.07;100.00
69153;BME280;56261;51.580;4.578;2024-03-06T05:10:06;102057.84;;;3.11;100.00
69153;BME280;56261;51.580;4.578;2024-03-06T05:12:32;102057.09;;;3.09;100.00
69153;BME280;56261;51.580;4.578;2024-03-06T05:14:59;102064.34;;;3.06;100.00
69153;BME280;56261;51.580;4.578;2024-03-06T05:17:25;102063.75;;;3.01;100.00
69153;BME280;56261;51.580;4.578;2024-03-06T05:19:50;102064.78;;;2.98;100.00
69153;BME280;56261;51.580;4.578;2024-03-06T05:22:16;102076.16;;;2.99;100.00
69153;BME280;56261;51.580;4.578;2024-03-06T05:24:42;102065.06;;;2.94;100.00
69153;BME280;56261;51.580;4.578;2024-03-06T05:27:08;102067.19;;;2.87;100.00
69153;BME280;56261;51.580;4.578;2024-03-06T05:29:35;102073.41;;;2.86;100.00
69153;BME280;56261;51.580;4.578;2024-03-06T05:32:01;102081.75;;;2.78;100.00
69153;BME280;56261;51.580;4.578;2024-03-06T05:34:27;102082.78;;;2.76;100.00
69153;BME280;56261;51.580;4.578;2024-03-06T05:36:52;102087.47;;;2.70;100.00
69153;BME280;56261;51.580;4.578;2024-03-06T05:39:18;102095.25;;;2.72;100.00
69153;BME280;56261;51.580;4.578;2024-03-06T05:41:43;102094.41;;;2.72;100.00
69153;BME280;56261;51.580;4.578;2024-03-06T05:44:09;102096.13;;;2.73;100.00
69153;BME280;56261;51.580;4.578;2024-03-06T05:46:35;102100.44;;;2.74;100.00
69153;BME280;56261;51.580;4.578;2024-03-06T05:49:01;102105.28;;;2.65;100.00
69153;BME280;56261;51.580;4.578;2024-03-06T05:51:27;102110.75;;;2.62;100.00
69153;BME280;56261;51.580;4.578;2024-03-06T05:53:53;102100.75;;;2.53;100.00
69153;BME280;56261;51.580;4.578;2024-03-06T05:56:18;102109.41;;;2.55;100.00
69153;BME280;56261;51.580;4.578;2024-03-06T05:58:44;102113.13;;;2.67;100.00
69153;BME280;56261;51.580;4.578;2024-03-06T06:01:12;102111.00;;;2.58;100.00
69153;BME280;56261;51.580;4.578;2024-03-06T06:03:38;102115.75;;;2.67;100.00
69153;BME280;56261;51.580;4.578;2024-03-06T06:06:04;102125.09;;;2.73;100.00
69153;BME280;56261;51.580;4.578;2024-03-06T06:08:33;102127.91;;;2.69;100.00
69153;BME280;56261;51.580;4.578;2024-03-06T06:10:58;102131.03;;;2.76;100.00
69153;BME280;56261;51.580;4.578;2024-03-06T06:13:23;102128.75;;;2.86;100.00
69153;BME280;56261;51.580;4.578;2024-03-06T06:15:49;102127.22;;;2.82;100.00
69153;BME280;56261;51.580;4.578;2024-03-06T06:18:14;102130.00;;;2.79;100.00
69153;BME280;56261;51.580;4.578;2024-03-06T06:20:41;102135.66;;;2.73;100.00
69153;BME280;56261;51.580;4.578;2024-03-06T06:23:07;102136.66;;;2.70;100.00
69153;BME280;56261;51.580;4.578;2024-03-06T06:25:33;102140.91;;;2.73;100.00
69153;BME280;56261;51.580;4.578;2024-03-06T06:27:58;102140.72;;;2.76;100.00
69153;BME280;56261;51.580;4.578;2024-03-06T06:30:24;102149.59;;;2.75;100.00
69153;BME280;56261;51.580;4.578;2024-03-06T06:32:49;102155.78;;;2.74;100.00
69153;BME280;56261;51.580;4.578;2024-03-06T06:35:15;102159.25;;;2.74;100.00
69153;BME280;56261;51.580;4.578;2024-03-06T06:37:41;102157.63;;;2.87;100.00
69153;BME280;56261;51.580;4.578;2024-03-06T06:40:07;102158.22;;;2.93;100.00
69153;BME280;56261;51.580;4.578;2024-03-06T06:42:34;102164.56;;;3.04;100.00
69153;BME280;56261;51.580;4.578;2024-03-06T06:45:01;102166.94;;;3.09;100.00
69153;BME280;56261;51.580;4.578;2024-03-06T06:47:27;102159.34;;;3.19;100.00
69153;BME280;56261;51.580;4.578;2024-03-06T06:49:53;102164.69;;;3.33;100.00
69153;BME280;56261;51.580;4.578;2024-03-06T06:52:19;102177.03;;;3.47;100.00
69153;BME280;56261;51.580;4.578;2024-03-06T06:54:44;102181.41;;;3.62;100.00
69153;BME280;56261;51.580;4.578;2024-03-06T06:57:10;102182.06;;;3.66;100.00
69153;BME280;56261;51.580;4.578;2024-03-06T06:59:35;102166.25;;;3.66;100.00
69153;BME280;56261;51.580;4.578;2024-03-06T07:02:04;102178.34;;;3.84;100.00
69153;BME280;56261;51.580;4.578;2024-03-06T07:04:30;102180.22;;;3.97;100.00
69153;BME280;56261;51.580;4.578;2024-03-06T07:06:55;102183.25;;;4.05;100.00
69153;BME280;56261;51.580;4.578;2024-03-06T07:09:20;102187.41;;;4.09;100.00
69153;BME280;56261;51.580;4.578;2024-03-06T07:11:46;102186.63;;;4.21;100.00
69153;BME280;56261;51.580;4.578;2024-03-06T07:14:14;102198.06;;;4.36;100.00
69153;BME280;56261;51.580;4.578;2024-03-06T07:16:44;102201.03;;;4.44;100.00
69153;BME280;56261;51.580;4.578;2024-03-06T07:19:10;102212.00;;;4.38;100.00
69153;BME280;56261;51.580;4.578;2024-03-06T07:21:36;102207.00;;;4.48;100.00
69153;BME280;56261;51.580;4.578;2024-03-06T07:24:03;102215.34;;;4.83;100.00
69153;BME280;56261;51.580;4.578;2024-03-06T07:26:29;102216.94;;;5.13;100.00
69153;BME280;56261;51.580;4.578;2024-03-06T07:28:55;102212.88;;;5.74;100.00
69153;BME280;56261;51.580;4.578;2024-03-06T07:31:21;102218.78;;;5.91;100.00
69153;BME280;56261;51.580;4.578;2024-03-06T07:33:46;102216.63;;;6.23;100.00
69153;BME280;56261;51.580;4.578;2024-03-06T07:36:11;102220.91;;;6.50;100.00
69153;BME280;56261;51.580;4.578;2024-03-06T07:38:37;102227.91;;;6.88;100.00
69153;BME280;56261;51.580;4.578;2024-03-06T07:41:02;102216.97;;;7.16;100.00
69153;BME280;56261;51.580;4.578;2024-03-06T07:43:28;102218.09;;;7.49;100.00
69153;BME280;56261;51.580;4.578;2024-03-06T07:45:53;102228.34;;;7.54;100.00
69153;BME280;56261;51.580;4.578;2024-03-06T07:48:21;102235.94;;;7.82;100.00
69153;BME280;56261;51.580;4.578;2024-03-06T07:50:46;102228.66;;;7.73;100.00
69153;BME280;56261;51.580;4.578;2024-03-06T07:53:11;102223.41;;;8.29;100.00
69153;BME280;56261;51.580;4.578;2024-03-06T07:55:37;102220.75;;;8.29;100.00
69153;BME280;56261;51.580;4.578;2024-03-06T07:58:04;102235.06;;;8.62;100.00
69153;BME280;56261;51.580;4.578;2024-03-06T08:00:29;102231.41;;;8.75;100.00
69153;BME280;56261;51.580;4.578;2024-03-06T08:02:56;102231.19;;;8.55;100.00
69153;BME280;56261;51.580;4.578;2024-03-06T08:05:22;102246.28;;;8.43;100.00
69153;BME280;56261;51.580;4.578;2024-03-06T08:07:47;102244.72;;;8.52;100.00
69153;BME280;56261;51.580;4.578;2024-03-06T08:10:13;102248.38;;;9.06;100.00
69153;BME280;56261;51.580;4.578;2024-03-06T08:12:42;102250.34;;;8.92;100.00
69153;BME280;56261;51.580;4.578;2024-03-06T08:15:11;102254.53;;;9.18;100.00
69153;BME280;56261;51.580;4.578;2024-03-06T08:17:42;102262.72;;;9.26;100.00
69153;BME280;56261;51.580;4.578;2024-03-06T08:20:11;102256.63;;;9.03;100.00
69153;BME280;56261;51.580;4.578;2024-03-06T08:22:38;102267.97;;;9.16;100.00
69153;BME280;56261;51.580;4.578;2024-03-06T08:25:08;102268.19;;;9.56;100.00
69153;BME280;56261;51.580;4.578;2024-03-06T08:27:34;102279.03;;;9.32;100.00
69153;BME280;56261;51.580;4.578;2024-03-06T08:30:00;102277.84;;;8.48;100.00
69153;BME280;56261;51.580;4.578;2024-03-06T08:32:26;102276.03;;;9.26;100.00
69153;BME280;56261;51.580;4.578;2024-03-06T08:34:52;102279.88;;;10.28;100.00
69153;BME280;56261;51.580;4.578;2024-03-06T08:37:18;102273.06;;;9.72;100.00
69153;BME280;56261;51.580;4.578;2024-03-06T08:39:43;102270.16;;;9.96;100.00
69153;BME280;56261;51.580;4.578;2024-03-06T08:42:08;102273.28;;;10.53;100.00
69153;BME280;56261;51.580;4.578;2024-03-06T08:44:34;102284.75;;;10.75;100.00
69153;BME280;56261;51.580;4.578;2024-03-06T08:46:59;102278.59;;;10.84;100.00
69153;BME280;56261;51.580;4.578;2024-03-06T08:49:25;102283.34;;;10.71;100.00
69153;BME280;56261;51.580;4.578;2024-03-06T08:51:50;102292.59;;;10.15;100.00
69153;BME280;56261;51.580;4.578;2024-03-06T08:54:15;102299.81;;;10.03;100.00
69153;BME280;56261;51.580;4.578;2024-03-06T08:56:43;102305.63;;;9.11;100.00
69153;BME280;56261;51.580;4.578;2024-03-06T08:59:09;102298.59;;;8.99;100.00
69153;BME280;56261;51.580;4.578;2024-03-06T09:01:34;102301.88;;;9.03;100.00
69153;BME280;56261;51.580;4.578;2024-03-06T09:03:59;102315.22;;;9.35;100.00
69153;BME280;56261;51.580;4.578;2024-03-06T09:06:25;102308.25;;;9.55;100.00
69153;BME280;56261;51.580;4.578;2024-03-06T09:08:50;102315.56;;;8.76;100.00
69153;BME280;56261;51.580;4.578;2024-03-06T09:11:16;102315.78;;;8.95;100.00
69153;BME280;56261;51.580;4.578;2024-03-06T09:13:41;102313.91;;;9.29;100.00
69153;BME280;56261;51.580;4.578;2024-03-06T09:16:06;102305.56;;;9.66;100.00
69153;BME280;56261;51.580;4.578;2024-03-06T09:18:32;102311.66;;;9.57;100.00
69153;BME280;56261;51.580;4.578;2024-03-06T09:20:57;102293.06;;;10.72;100.00
69153;BME280;56261;51.580;4.578;2024-03-06T09:23:23;102310.00;;;10.19;100.00
69153;BME280;56261;51.580;4.578;2024-03-06T09:25:48;102316.50;;;10.26;100.00
69153;BME280;56261;51.580;4.578;2024-03-06T09:28:14;102324.09;;;9.24;100.00
69153;BME280;56261;51.580;4.578;2024-03-06T09:30:40;102319.97;;;10.38;100.00
69153;BME280;56261;51.580;4.578;2024-03-06T09:33:06;102314.31;;;10.93;100.00
69153;BME280;56261;51.580;4.578;2024-03-06T09:35:32;102323.06;;;11.05;100.00
69153;BME280;56261;51.580;4.578;2024-03-06T09:37:58;102329.03;;;10.87;100.00
69153;BME280;56261;51.580;4.578;2024-03-06T09:40:24;102333.50;;;10.25;100.00
69153;BME280;56261;51.580;4.578;2024-03-06T09:42:50;102341.41;;;10.15;100.00
69153;BME280;56261;51.580;4.578;2024-03-06T09:45:17;102339.78;;;10.97;100.00
69153;BME280;56261;51.580;4.578;2024-03-06T09:47:43;102335.59;;;11.14;100.00
69153;BME280;56261;51.580;4.578;2024-03-06T09:50:09;102343.34;;;10.46;100.00
69153;BME280;56261;51.580;4.578;2024-03-06T09:52:36;102349.41;;;10.15;100.00
69153;BME280;56261;51.580;4.578;2024-03-06T09:55:02;102343.81;;;10.30;100.00
69153;BME280;56261;51.580;4.578;2024-03-06T09:57:28;102343.16;;;10.99;100.00
69153;BME280;56261;51.580;4.578;2024-03-06T09:59:54;102345.41;;;11.04;100.00
69153;BME280;56261;51.580;4.578;2024-03-06T10:02:46;102344.41;;;11.74;100.00
69153;BME280;56261;51.580;4.578;2024-03-06T10:05:21;102345.91;;;11.38;100.00
69153;BME280;56261;51.580;4.578;2024-03-06T10:07:47;102360.81;;;10.90;100.00
69153;BME280;56261;51.580;4.578;2024-03-06T10:10:14;102354.78;;;10.88;100.00
69153;BME280;56261;51.580;4.578;2024-03-06T10:12:40;102364.22;;;10.41;100.00
69153;BME280;56261;51.580;4.578;2024-03-06T10:15:06;102358.91;;;9.87;100.00
69153;BME280;56261;51.580;4.578;2024-03-06T10:17:32;102360.03;;;9.73;100.00
69153;BME280;56261;51.580;4.578;2024-03-06T10:19:57;102361.56;;;10.41;100.00
69153;BME280;56261;51.580;4.578;2024-03-06T10:22:26;102361.41;;;10.63;100.00
69153;BME280;56261;51.580;4.578;2024-03-06T10:24:55;102363.88;;;10.55;100.00
69153;BME280;56261;51.580;4.578;2024-03-06T10:27:24;102359.84;;;10.39;100.00
69153;BME280;56261;51.580;4.578;2024-03-06T10:30:02;102367.59;;;10.94;100.00
69153;BME280;56261;51.580;4.578;2024-03-06T10:32:30;102366.06;;;11.01;100.00
69153;BME280;56261;51.580;4.578;2024-03-06T10:34:55;102378.47;;;11.12;100.00
69153;BME280;56261;51.580;4.578;2024-03-06T10:37:22;102379.09;;;10.95;100.00
69153;BME280;56261;51.580;4.578;2024-03-06T10:39:49;102372.44;;;10.79;100.00
69153;BME280;56261;51.580;4.578;2024-03-06T10:42:17;102376.53;;;10.84;100.00
69153;BME280;56261;51.580;4.578;2024-03-06T10:44:51;102365.03;;;10.93;100.00
69153;BME280;56261;51.580;4.578;2024-03-06T10:47:18;102373.22;;;11.01;100.00
69153;BME280;56261;51.580;4.578;2024-03-06T10:49:45;102346.97;;;11.06;100.00
69153;BME280;56261;51.580;4.578;2024-03-06T10:52:11;102372.44;;;11.20;100.00
69153;BME280;56261;51.580;4.578;2024-03-06T10:54:38;102378.47;;;11.12;100.00
69153;BME280;56261;51.580;4.578;2024-03-06T10:57:08;102371.44;;;11.11;100.00
69153;BME280;56261;51.580;4.578;2024-03-06T10:59:35;102377.47;;;11.13;100.00
69153;BME280;56261;51.580;4.578;2024-03-06T11:02:01;102385.75;;;11.51;100.00
69153;BME280;56261;51.580;4.578;2024-03-06T11:04:28;102383.72;;;11.24;100.00
69153;BME280;56261;51.580;4.578;2024-03-06T11:06:56;102383.31;;;10.97;100.00
69153;BME280;56261;51.580;4.578;2024-03-06T11:09:21;102382.88;;;11.23;100.00
69153;BME280;56261;51.580;4.578;2024-03-06T11:11:51;102387.53;;;11.31;100.00
69153;BME280;56261;51.580;4.578;2024-03-06T11:14:17;102385.38;;;11.75;100.00
69153;BME280;56261;51.580;4.578;2024-03-06T11:19:28;102383.81;;;11.82;100.00
69153;BME280;56261;51.580;4.578;2024-03-06T11:21:54;102395.63;;;11.19;100.00
69153;BME280;56261;51.580;4.578;2024-03-06T11:24:21;102390.97;;;11.12;100.00
69153;BME280;56261;51.580;4.578;2024-03-06T11:26:55;102376.44;;;11.35;100.00
69153;BME280;56261;51.580;4.578;2024-03-06T11:29:22;102386.19;;;11.75;100.00
69153;BME280;56261;51.580;4.578;2024-03-06T11:32:05;102401.13;;;11.88;100.00
69153;BME280;56261;51.580;4.578;2024-03-06T11:34:33;102396.72;;;11.67;100.00
69153;BME280;56261;51.580;4.578;2024-03-06T11:37:03;102395.44;;;11.42;100.00
69153;BME280;56261;51.580;4.578;2024-03-06T11:39:33;102394.16;;;11.46;100.00
69153;BME280;56261;51.580;4.578;2024-03-06T11:41:59;102398.44;;;11.68;100.00
69153;BME280;56261;51.580;4.578;2024-03-06T11:44:26;102407.06;;;12.11;100.00
69153;BME280;56261;51.580;4.578;2024-03-06T11:47:00;102403.25;;;12.23;100.00
69153;BME280;56261;51.580;4.578;2024-03-06T11:49:27;102403.75;;;11.49;100.00
69153;BME280;56261;51.580;4.578;2024-03-06T11:52:07;102400.75;;;11.92;100.00
69153;BME280;56261;51.580;4.578;2024-03-06T11:54:36;102411.56;;;12.30;100.00
69153;BME280;56261;51.580;4.578;2024-03-06T11:57:03;102412.81;;;12.55;100.00
69153;BME280;56261;51.580;4.578;2024-03-06T11:59:30;102419.44;;;12.51;100.00
69153;BME280;56261;51.580;4.578;2024-03-06T12:02:01;102411.97;;;12.44;100.00
69153;BME280;56261;51.580;4.578;2024-03-06T12:04:30;102417.78;;;12.30;100.00
69153;BME280;56261;51.580;4.578;2024-03-06T12:07:00;102413.69;;;12.26;100.00
69153;BME280;56261;51.580;4.578;2024-03-06T12:09:30;102413.97;;;12.23;100.00
69153;BME280;56261;51.580;4.578;2024-03-06T12:11:55;102412.72;;;12.17;100.00
69153;BME280;56261;51.580;4.578;2024-03-06T12:14:22;102416.91;;;12.30;100.00
69153;BME280;56261;51.580;4.578;2024-03-06T12:17:01;102413.41;;;12.19;100.00
69153;BME280;56261;51.580;4.578;2024-03-06T12:19:34;102419.59;;;12.30;100.00
69153;BME280;56261;51.580;4.578;2024-03-06T12:22:03;102408.19;;;12.37;100.00
69153;BME280;56261;51.580;4.578;2024-03-06T12:24:29;102407.63;;;12.14;100.00
69153;BME280;56261;51.580;4.578;2024-03-06T12:27:03;102413.28;;;12.01;100.00
69153;BME280;56261;51.580;4.578;2024-03-06T12:29:32;102404.81;;;12.16;100.00
69153;BME280;56261;51.580;4.578;2024-03-06T12:31:58;102401.00;;;12.18;100.00
69153;BME280;56261;51.580;4.578;2024-03-06T12:34:24;102412.56;;;11.99;100.00
69153;BME280;56261;51.580;4.578;2024-03-06T12:36:50;102408.41;;;11.66;100.00
69153;BME280;56261;51.580;4.578;2024-03-06T12:39:17;102405.53;;;11.38;100.00
69153;BME280;56261;51.580;4.578;2024-03-06T12:41:51;102401.84;;;11.90;100.00
69153;BME280;56261;51.580;4.578;2024-03-06T12:44:18;102409.31;;;12.05;100.00
69153;BME280;56261;51.580;4.578;2024-03-06T12:46:44;102401.44;;;12.23;100.00